createdAt,value
2018-12-27T00:00:48.089Z,32.00
2018-12-27T00:01:48.100Z,31.00
2018-12-27T00:02:54.632Z,32.30
2018-12-27T00:03:48.134Z,32.90
2018-12-27T00:04:48.154Z,30.80
2018-12-27T00:05:48.168Z,31.40
2018-12-27T00:06:48.185Z,31.50
2018-12-27T00:07:48.200Z,31.40
2018-12-27T00:08:48.222Z,31.90
2018-12-27T00:09:48.247Z,32.20
2018-12-27T00:10:48.248Z,32.10
2018-12-27T00:11:48.265Z,29.60
2018-12-27T00:12:48.285Z,29.90
2018-12-27T00:13:48.304Z,29.80
2018-12-27T00:14:48.333Z,30.80
2018-12-27T00:15:48.343Z,30.60
2018-12-27T00:16:48.346Z,29.90
2018-12-27T00:17:48.366Z,29.90
2018-12-27T00:18:48.398Z,30.20
2018-12-27T00:19:48.410Z,31.10
2018-12-27T00:20:48.419Z,29.40
2018-12-27T00:21:48.431Z,31.40
2018-12-27T00:22:48.446Z,29.80
2018-12-27T00:23:48.469Z,29.90
2018-12-27T00:24:48.482Z,29.30
2018-12-27T00:25:48.499Z,29.60
2018-12-27T00:26:48.520Z,29.10
2018-12-27T00:27:48.534Z,29.30
2018-12-27T00:28:48.564Z,30.50
2018-12-27T00:29:48.562Z,29.40
2018-12-27T00:30:48.580Z,29.70
2018-12-27T00:31:48.598Z,30.70
2018-12-27T00:32:48.610Z,29.20
2018-12-27T00:33:48.626Z,30.30
2018-12-27T00:34:48.647Z,28.50
2018-12-27T00:35:48.670Z,29.30
2018-12-27T00:36:48.675Z,30.30
2018-12-27T00:37:48.700Z,28.90
2018-12-27T00:38:48.722Z,29.90
2018-12-27T00:39:48.728Z,29.40
2018-12-27T00:40:48.748Z,29.80
2018-12-27T00:41:48.759Z,28.60
2018-12-27T00:42:48.774Z,28.90
2018-12-27T00:43:48.797Z,30.20
2018-12-27T00:44:48.804Z,28.40
2018-12-27T00:45:48.835Z,27.70
2018-12-27T00:46:48.844Z,27.40
2018-12-27T00:47:48.863Z,28.10
2018-12-27T00:48:48.872Z,28.70
2018-12-27T00:49:48.891Z,28.10
2018-12-27T00:50:48.908Z,28.50
2018-12-27T00:51:48.922Z,28.20
2018-12-27T00:52:48.945Z,28.10
2018-12-27T00:53:48.955Z,27.80
2018-12-27T00:54:48.970Z,28.10
2018-12-27T00:55:48.987Z,28.80
2018-12-27T00:56:49.001Z,28.40
2018-12-27T00:57:49.020Z,28.30
2018-12-27T00:58:49.054Z,28.00
2018-12-27T00:59:49.051Z,28.80
2018-12-27T01:00:49.074Z,26.70
2018-12-27T01:01:49.122Z,27.20
2018-12-27T01:02:49.106Z,27.90
2018-12-27T01:03:49.259Z,27.30
2018-12-27T01:04:49.145Z,27.70
2018-12-27T01:05:49.153Z,27.40
2018-12-27T01:06:49.195Z,27.60
2018-12-27T01:07:49.183Z,27.30
2018-12-27T01:08:49.206Z,26.70
2018-12-27T01:09:49.218Z,27.00
2018-12-27T01:10:49.230Z,27.30
2018-12-27T01:11:49.245Z,27.80
2018-12-27T01:12:49.265Z,27.60
2018-12-27T01:13:49.288Z,27.50
2018-12-27T01:14:49.298Z,27.40
2018-12-27T01:15:49.315Z,27.80
2018-12-27T01:16:49.331Z,28.90
2018-12-27T01:17:49.344Z,27.00
2018-12-27T01:18:49.363Z,27.70
2018-12-27T01:19:49.393Z,28.20
2018-12-27T01:20:49.395Z,26.90
2018-12-27T01:21:49.419Z,26.30
2018-12-27T01:22:49.426Z,27.70
2018-12-27T01:23:49.454Z,26.90
2018-12-27T01:24:49.465Z,26.80
2018-12-27T01:25:49.485Z,27.30
2018-12-27T01:26:49.498Z,27.30
2018-12-27T01:27:49.507Z,27.10
2018-12-27T01:28:49.531Z,26.70
2018-12-27T01:29:49.544Z,26.20
2018-12-27T01:30:49.555Z,26.20
2018-12-27T01:31:50.646Z,26.50
2018-12-27T01:32:49.588Z,26.10
2018-12-27T01:33:49.609Z,25.80
2018-12-27T01:34:49.620Z,25.00
2018-12-27T01:35:49.642Z,26.30
2018-12-27T01:36:49.659Z,26.20
2018-12-27T01:37:49.671Z,25.70
2018-12-27T01:38:49.707Z,26.40
2018-12-27T01:39:49.708Z,27.50
2018-12-27T01:40:49.719Z,26.50
2018-12-27T01:41:49.734Z,27.20
2018-12-27T01:42:49.750Z,27.80
2018-12-27T01:43:49.768Z,27.30
2018-12-27T01:44:49.788Z,26.00
2018-12-27T01:45:49.802Z,27.00
2018-12-27T01:46:49.821Z,26.00
2018-12-27T01:47:49.834Z,27.00
2018-12-27T01:48:49.848Z,26.80
2018-12-27T01:49:49.967Z,26.60
2018-12-27T01:50:49.886Z,26.20
2018-12-27T01:51:49.895Z,26.80
2018-12-27T01:52:49.911Z,26.40
2018-12-27T01:53:49.930Z,27.40
2018-12-27T01:54:49.943Z,26.20
2018-12-27T01:55:49.962Z,26.20
2018-12-27T01:56:49.977Z,26.40
2018-12-27T01:57:49.996Z,26.20
2018-12-27T01:58:50.009Z,27.10
2018-12-27T01:59:50.027Z,25.70
2018-12-27T02:00:50.043Z,26.60
2018-12-27T02:01:50.056Z,26.10
2018-12-27T02:02:50.071Z,27.30
2018-12-27T02:03:50.091Z,25.20
2018-12-27T02:04:50.105Z,25.50
2018-12-27T02:05:50.119Z,25.30
2018-12-27T02:06:50.138Z,26.50
2018-12-27T02:07:50.154Z,25.70
2018-12-27T02:08:50.170Z,26.40
2018-12-27T02:09:50.181Z,26.00
2018-12-27T02:10:50.198Z,26.40
2018-12-27T02:11:50.212Z,26.50
2018-12-27T02:12:50.229Z,25.30
2018-12-27T02:13:50.258Z,26.40
2018-12-27T02:14:50.265Z,26.40
2018-12-27T02:15:50.280Z,26.20
2018-12-27T02:16:50.300Z,26.30
2018-12-27T02:17:50.312Z,26.10
2018-12-27T02:18:50.326Z,25.80
2018-12-27T02:19:50.340Z,25.60
2018-12-27T02:20:50.362Z,25.20
2018-12-27T02:21:50.370Z,26.90
2018-12-27T02:22:50.389Z,26.50
2018-12-27T02:23:50.408Z,25.80
2018-12-27T02:24:50.420Z,25.20
2018-12-27T02:25:50.432Z,25.80
2018-12-27T02:26:50.452Z,25.40
2018-12-27T02:27:50.465Z,24.40
2018-12-27T02:28:50.482Z,25.30
2018-12-27T02:29:50.506Z,26.90
2018-12-27T02:30:50.521Z,24.00
2018-12-27T02:31:50.536Z,24.70
2018-12-27T02:32:50.545Z,26.10
2018-12-27T02:33:50.563Z,25.80
2018-12-27T02:34:50.576Z,27.20
2018-12-27T02:35:50.594Z,25.70
2018-12-27T02:36:50.609Z,26.70
2018-12-27T02:37:50.644Z,26.10
2018-12-27T02:38:50.652Z,26.40
2018-12-27T02:39:50.653Z,26.20
2018-12-27T02:40:50.671Z,26.30
2018-12-27T02:41:50.691Z,25.80
2018-12-27T02:42:50.714Z,26.20
2018-12-27T02:43:50.718Z,26.70
2018-12-27T02:44:50.731Z,26.30
2018-12-27T02:45:50.752Z,25.80
2018-12-27T02:46:50.768Z,25.40
2018-12-27T02:47:50.786Z,25.20
2018-12-27T02:48:50.799Z,26.30
2018-12-27T02:49:50.823Z,25.00
2018-12-27T02:50:50.834Z,25.70
2018-12-27T02:51:50.846Z,26.20
2018-12-27T02:52:50.862Z,25.40
2018-12-27T02:53:50.880Z,25.90
2018-12-27T02:54:50.899Z,24.70
2018-12-27T02:55:50.913Z,25.90
2018-12-27T02:56:50.922Z,25.70
2018-12-27T02:57:50.944Z,24.90
2018-12-27T02:58:50.978Z,26.30
2018-12-27T02:59:50.989Z,25.60
2018-12-27T03:00:50.999Z,25.80
2018-12-27T03:01:51.013Z,25.30
2018-12-27T03:02:51.025Z,25.40
2018-12-27T03:03:51.045Z,26.90
2018-12-27T03:04:51.073Z,25.90
2018-12-27T03:05:51.102Z,26.40
2018-12-27T03:06:51.091Z,24.40
2018-12-27T03:07:51.101Z,24.80
2018-12-27T03:08:51.124Z,24.80
2018-12-27T03:09:51.152Z,25.20
2018-12-27T03:10:51.163Z,25.10
2018-12-27T03:11:51.172Z,25.20
2018-12-27T03:12:51.187Z,25.90
2018-12-27T03:13:51.201Z,25.20
2018-12-27T03:14:51.220Z,24.40
2018-12-27T03:15:51.236Z,24.90
2018-12-27T03:16:51.251Z,24.50
2018-12-27T03:17:51.272Z,24.50
2018-12-27T03:18:51.290Z,24.80
2018-12-27T03:19:51.301Z,24.90
2018-12-27T03:20:51.313Z,25.20
2018-12-27T03:21:51.331Z,24.60
2018-12-27T03:22:51.357Z,24.80
2018-12-27T03:23:51.370Z,25.00
2018-12-27T03:24:51.390Z,24.50
2018-12-27T03:25:51.393Z,25.00
2018-12-27T03:26:51.411Z,24.80
2018-12-27T03:27:51.432Z,24.00
2018-12-27T03:28:51.441Z,24.70
2018-12-27T03:29:51.480Z,24.90
2018-12-27T03:30:51.475Z,24.00
2018-12-27T03:31:51.669Z,25.60
2018-12-27T03:32:51.596Z,25.00
2018-12-27T03:33:52.745Z,25.10
2018-12-27T03:34:51.556Z,24.80
2018-12-27T03:35:51.562Z,25.30
2018-12-27T03:36:51.716Z,24.20
2018-12-27T03:37:51.605Z,24.60
2018-12-27T03:38:51.610Z,25.20
2018-12-27T03:39:51.614Z,25.10
2018-12-27T03:40:51.629Z,24.90
2018-12-27T03:41:51.646Z,25.90
2018-12-27T03:42:51.658Z,24.60
2018-12-27T03:43:51.685Z,24.80
2018-12-27T03:44:51.692Z,24.70
2018-12-27T03:45:51.707Z,24.70
2018-12-27T03:46:51.722Z,24.60
2018-12-27T03:47:51.739Z,24.50
2018-12-27T03:48:51.760Z,24.60
2018-12-27T03:49:51.774Z,25.40
2018-12-27T03:50:51.786Z,24.80
2018-12-27T03:51:51.808Z,24.50
2018-12-27T03:52:51.820Z,24.80
2018-12-27T03:53:51.841Z,24.30
2018-12-27T03:54:51.849Z,24.20
2018-12-27T03:55:51.872Z,24.20
2018-12-27T03:56:51.888Z,24.60
2018-12-27T03:57:51.905Z,24.00
2018-12-27T03:58:51.914Z,24.20
2018-12-27T03:59:51.935Z,24.50
2018-12-27T04:00:51.942Z,25.70
2018-12-27T04:01:51.959Z,25.50
2018-12-27T04:02:51.976Z,25.40
2018-12-27T04:03:51.992Z,24.70
2018-12-27T04:04:52.020Z,24.50
2018-12-27T04:05:52.021Z,24.50
2018-12-27T04:06:52.043Z,25.40
2018-12-27T04:07:52.054Z,25.50
2018-12-27T04:08:52.073Z,25.10
2018-12-27T04:09:52.084Z,25.70
2018-12-27T04:10:52.099Z,26.10
2018-12-27T04:11:52.125Z,25.70
2018-12-27T04:12:52.135Z,25.90
2018-12-27T04:13:52.152Z,25.30
2018-12-27T04:14:52.163Z,23.80
2018-12-27T04:15:52.179Z,25.30
2018-12-27T04:16:52.191Z,24.70
2018-12-27T04:17:52.208Z,25.50
2018-12-27T04:18:52.242Z,24.00
2018-12-27T04:19:52.261Z,25.80
2018-12-27T04:20:52.255Z,25.90
2018-12-27T04:21:52.276Z,25.80
2018-12-27T04:22:52.302Z,25.50
2018-12-27T04:23:52.314Z,25.90
2018-12-27T04:24:52.327Z,25.60
2018-12-27T04:25:52.433Z,26.00
2018-12-27T04:26:52.354Z,25.10
2018-12-27T04:27:52.372Z,25.90
2018-12-27T04:28:52.383Z,24.50
2018-12-27T04:29:52.405Z,25.70
2018-12-27T04:30:52.418Z,26.60
2018-12-27T04:31:52.428Z,24.70
2018-12-27T04:32:52.450Z,27.10
2018-12-27T04:33:52.462Z,25.70
2018-12-27T04:34:52.473Z,26.10
2018-12-27T04:35:52.492Z,26.20
2018-12-27T04:36:52.511Z,25.50
2018-12-27T04:37:52.540Z,25.00
2018-12-27T04:38:52.548Z,26.10
2018-12-27T04:39:52.562Z,25.60
2018-12-27T04:40:52.573Z,25.80
2018-12-27T04:41:52.586Z,26.70
2018-12-27T04:42:52.603Z,26.70
2018-12-27T04:43:52.612Z,26.40
2018-12-27T04:44:52.629Z,24.70
2018-12-27T04:45:52.649Z,24.70
2018-12-27T04:46:52.682Z,25.20
2018-12-27T04:47:52.673Z,25.20
2018-12-27T04:48:52.695Z,24.30
2018-12-27T04:49:52.703Z,27.00
2018-12-27T04:50:52.725Z,26.60
2018-12-27T04:51:52.740Z,26.10
2018-12-27T04:52:52.749Z,25.10
2018-12-27T04:53:52.768Z,24.30
2018-12-27T04:54:52.779Z,24.50
2018-12-27T04:55:52.798Z,25.30
2018-12-27T04:56:52.815Z,24.20
2018-12-27T04:57:52.829Z,24.90
2018-12-27T04:58:52.838Z,25.10
2018-12-27T04:59:52.938Z,25.20
2018-12-27T05:00:52.882Z,24.10
2018-12-27T05:01:52.888Z,25.50
2018-12-27T05:02:52.913Z,24.70
2018-12-27T05:03:52.918Z,25.70
2018-12-27T05:04:52.933Z,25.90
2018-12-27T05:05:52.948Z,25.20
2018-12-27T05:06:52.970Z,26.50
2018-12-27T05:07:52.977Z,26.00
2018-12-27T05:08:53.000Z,26.90
2018-12-27T05:09:53.012Z,26.80
2018-12-27T05:10:53.019Z,25.90
2018-12-27T05:11:53.036Z,25.40
2018-12-27T05:12:53.052Z,25.80
2018-12-27T05:13:53.072Z,24.70
2018-12-27T05:14:53.092Z,24.20
2018-12-27T05:15:53.103Z,25.50
2018-12-27T05:16:53.123Z,27.00
2018-12-27T05:17:53.123Z,25.90
2018-12-27T05:18:53.142Z,26.70
2018-12-27T05:19:53.155Z,27.20
2018-12-27T05:20:53.170Z,25.80
2018-12-27T05:21:53.189Z,26.90
2018-12-27T05:22:53.212Z,26.70
2018-12-27T05:23:53.216Z,26.90
2018-12-27T05:24:53.230Z,27.40
2018-12-27T05:25:53.244Z,26.70
2018-12-27T05:26:53.276Z,25.70
2018-12-27T05:27:53.282Z,26.20
2018-12-27T05:28:53.333Z,25.90
2018-12-27T05:29:53.301Z,26.50
2018-12-27T05:30:53.350Z,25.80
2018-12-27T05:31:53.330Z,28.00
2018-12-27T05:32:53.350Z,27.40
2018-12-27T05:33:53.366Z,26.70
2018-12-27T05:34:53.381Z,26.30
2018-12-27T05:35:53.395Z,26.30
2018-12-27T05:36:53.407Z,25.70
2018-12-27T05:37:53.424Z,25.70
2018-12-27T05:38:53.437Z,26.00
2018-12-27T05:39:53.448Z,25.90
2018-12-27T05:40:53.464Z,24.40
2018-12-27T05:41:53.486Z,25.60
2018-12-27T05:42:54.173Z,24.30
2018-12-27T05:43:53.510Z,24.80
2018-12-27T05:44:53.531Z,26.40
2018-12-27T05:45:53.539Z,26.70
2018-12-27T05:46:53.553Z,26.10
2018-12-27T05:47:53.567Z,25.70
2018-12-27T05:48:53.588Z,25.30
2018-12-27T05:49:53.617Z,27.00
2018-12-27T05:50:53.627Z,26.70
2018-12-27T05:51:53.626Z,25.20
2018-12-27T05:52:53.640Z,27.00
2018-12-27T05:53:53.656Z,25.80
2018-12-27T05:54:53.672Z,26.10
2018-12-27T05:55:53.683Z,26.70
2018-12-27T05:56:53.701Z,25.00
2018-12-27T05:57:53.730Z,24.80
2018-12-27T05:58:53.731Z,24.20
2018-12-27T05:59:53.744Z,23.80
2018-12-27T06:00:53.759Z,24.40
2018-12-27T06:01:53.775Z,23.70
2018-12-27T06:02:53.794Z,24.40
2018-12-27T06:03:53.807Z,25.30
2018-12-27T06:04:53.833Z,25.50
2018-12-27T06:05:53.835Z,24.50
2018-12-27T06:06:53.845Z,24.90
2018-12-27T06:07:53.866Z,25.10
2018-12-27T06:08:53.874Z,24.40
2018-12-27T06:09:53.889Z,24.80
2018-12-27T06:10:53.908Z,24.10
2018-12-27T06:11:53.927Z,24.90
2018-12-27T06:12:53.934Z,24.20
2018-12-27T06:13:53.949Z,25.10
2018-12-27T06:14:53.970Z,25.10
2018-12-27T06:15:53.976Z,24.20
2018-12-27T06:16:53.988Z,23.70
2018-12-27T06:17:54.005Z,22.70
2018-12-27T06:18:54.043Z,23.50
2018-12-27T06:19:54.043Z,23.30
2018-12-27T06:20:54.060Z,23.30
2018-12-27T06:21:54.060Z,23.90
2018-12-27T06:22:54.077Z,23.50
2018-12-27T06:23:54.101Z,25.30
2018-12-27T06:24:54.105Z,24.70
2018-12-27T06:25:54.119Z,24.00
2018-12-27T06:26:54.132Z,24.50
2018-12-27T06:27:54.152Z,23.90
2018-12-27T06:28:54.160Z,24.60
2018-12-27T06:29:54.178Z,24.00
2018-12-27T06:30:54.198Z,23.50
2018-12-27T06:31:54.206Z,22.60
2018-12-27T06:32:54.221Z,24.40
2018-12-27T06:33:54.234Z,24.30
2018-12-27T06:34:54.248Z,23.50
2018-12-27T06:35:54.265Z,23.80
2018-12-27T06:36:54.275Z,23.50
2018-12-27T06:37:54.294Z,23.70
2018-12-27T06:38:54.308Z,22.40
2018-12-27T06:39:54.332Z,24.30
2018-12-27T06:40:54.335Z,23.20
2018-12-27T06:41:54.357Z,23.40
2018-12-27T06:42:54.374Z,24.20
2018-12-27T06:43:54.377Z,23.80
2018-12-27T06:44:54.397Z,23.20
2018-12-27T06:45:54.413Z,22.60
2018-12-27T06:46:54.421Z,21.90
2018-12-27T06:47:54.434Z,22.30
2018-12-27T06:48:54.446Z,22.70
2018-12-27T06:49:54.468Z,22.40
2018-12-27T06:50:54.474Z,22.30
2018-12-27T06:51:54.493Z,22.00
2018-12-27T06:52:54.507Z,22.20
2018-12-27T06:53:54.519Z,21.70
2018-12-27T06:54:54.540Z,21.90
2018-12-27T06:55:54.548Z,23.50
2018-12-27T06:56:54.563Z,24.20
2018-12-27T06:57:54.580Z,23.40
2018-12-27T06:58:54.591Z,22.70
2018-12-27T06:59:54.606Z,23.30
2018-12-27T07:00:54.626Z,23.90
2018-12-27T07:01:54.635Z,22.80
2018-12-27T07:02:54.648Z,22.50
2018-12-27T07:03:54.661Z,22.40
2018-12-27T07:04:54.676Z,21.80
2018-12-27T07:05:54.720Z,21.20
2018-12-27T07:06:54.708Z,22.90
2018-12-27T07:07:54.721Z,22.10
2018-12-27T07:08:54.735Z,21.50
2018-12-27T07:09:54.747Z,21.60
2018-12-27T07:10:54.761Z,21.40
2018-12-27T07:11:56.361Z,20.80
2018-12-27T07:12:54.791Z,22.10
2018-12-27T07:13:54.823Z,22.40
2018-12-27T07:14:54.838Z,24.90
2018-12-27T07:15:54.834Z,25.40
2018-12-27T07:16:54.901Z,24.50
2018-12-27T07:17:54.865Z,23.80
2018-12-27T07:18:54.887Z,23.90
2018-12-27T07:19:55.059Z,23.20
2018-12-27T07:20:54.906Z,22.00
2018-12-27T07:21:54.926Z,22.20
2018-12-27T07:22:54.937Z,23.00
2018-12-27T07:23:54.978Z,21.80
2018-12-27T07:24:54.971Z,22.80
2018-12-27T07:25:54.992Z,22.70
2018-12-27T07:26:54.998Z,22.00
2018-12-27T07:27:55.006Z,23.20
2018-12-27T07:28:55.015Z,22.70
2018-12-27T07:29:55.034Z,22.30
2018-12-27T07:30:55.046Z,22.60
2018-12-27T07:31:55.074Z,22.30
2018-12-27T07:32:55.076Z,21.80
2018-12-27T07:33:55.087Z,21.80
2018-12-27T07:34:56.626Z,22.20
2018-12-27T07:35:55.123Z,23.30
2018-12-27T07:36:55.136Z,22.40
2018-12-27T07:37:55.151Z,21.50
2018-12-27T07:38:55.162Z,21.00
2018-12-27T07:39:55.175Z,22.20
2018-12-27T07:40:55.186Z,21.90
2018-12-27T07:41:55.201Z,21.90
2018-12-27T07:42:55.214Z,22.30
2018-12-27T07:43:55.230Z,22.50
2018-12-27T07:44:55.243Z,22.00
2018-12-27T07:45:55.257Z,21.50
2018-12-27T07:46:55.278Z,21.50
2018-12-27T07:47:55.284Z,22.50
2018-12-27T07:48:55.302Z,22.20
2018-12-27T07:49:55.312Z,21.30
2018-12-27T07:50:55.326Z,22.20
2018-12-27T07:51:55.353Z,21.20
2018-12-27T07:52:55.372Z,22.90
2018-12-27T07:53:55.378Z,20.90
2018-12-27T07:54:55.385Z,21.40
2018-12-27T07:55:55.413Z,21.00
2018-12-27T07:56:55.434Z,23.50
2018-12-27T07:57:55.428Z,22.70
2018-12-27T07:58:55.442Z,24.00
2018-12-27T07:59:55.457Z,23.20
2018-12-27T08:00:55.473Z,22.10
2018-12-27T08:01:55.489Z,23.00
2018-12-27T08:02:55.511Z,22.40
2018-12-27T08:03:55.516Z,24.90
2018-12-27T08:04:55.529Z,24.30
2018-12-27T08:05:55.542Z,22.60
2018-12-27T08:06:55.565Z,21.70
2018-12-27T08:07:55.579Z,20.60
2018-12-27T08:08:55.737Z,21.10
2018-12-27T08:09:55.597Z,21.90
2018-12-27T08:10:55.625Z,22.50
2018-12-27T08:11:55.650Z,22.30
2018-12-27T08:12:55.644Z,22.20
2018-12-27T08:13:55.655Z,21.20
2018-12-27T08:14:55.671Z,21.40
2018-12-27T08:15:55.689Z,22.40
2018-12-27T08:16:55.700Z,22.80
2018-12-27T08:17:55.712Z,22.50
2018-12-27T08:18:55.726Z,21.10
2018-12-27T08:19:55.745Z,21.20
2018-12-27T08:20:55.755Z,21.10
2018-12-27T08:21:55.783Z,21.00
2018-12-27T08:22:55.784Z,22.70
2018-12-27T08:23:55.802Z,22.80
2018-12-27T08:24:55.821Z,22.60
2018-12-27T08:25:55.829Z,21.30
2018-12-27T08:26:55.840Z,21.60
2018-12-27T08:27:55.857Z,22.90
2018-12-27T08:28:56.791Z,22.30
2018-12-27T08:29:55.891Z,21.20
2018-12-27T08:30:55.899Z,22.50
2018-12-27T08:31:55.924Z,21.60
2018-12-27T08:32:55.931Z,21.70
2018-12-27T08:33:55.947Z,21.30
2018-12-27T08:34:55.967Z,22.20
2018-12-27T08:35:55.978Z,22.00
2018-12-27T08:36:56.067Z,22.80
2018-12-27T08:37:56.011Z,22.70
2018-12-27T08:38:56.028Z,23.60
2018-12-27T08:39:56.034Z,29.30
2018-12-27T08:40:56.048Z,31.20
2018-12-27T08:41:56.063Z,31.10
2018-12-27T08:42:56.101Z,34.10
2018-12-27T08:43:56.091Z,29.50
2018-12-27T08:44:56.107Z,29.20
2018-12-27T08:45:56.126Z,26.70
2018-12-27T08:46:56.142Z,24.80
2018-12-27T08:47:56.154Z,24.50
2018-12-27T08:48:56.167Z,24.30
2018-12-27T08:49:56.204Z,25.20
2018-12-27T08:50:56.196Z,25.00
2018-12-27T08:51:56.216Z,25.80
2018-12-27T08:52:56.236Z,25.00
2018-12-27T08:53:56.276Z,25.80
2018-12-27T08:54:56.258Z,25.60
2018-12-27T08:55:56.269Z,27.30
2018-12-27T08:56:56.284Z,25.70
2018-12-27T08:57:56.308Z,27.20
2018-12-27T08:58:56.322Z,27.60
2018-12-27T08:59:56.330Z,24.80
2018-12-27T09:00:56.342Z,23.70
2018-12-27T09:01:56.362Z,23.70
2018-12-27T09:02:56.374Z,24.30
2018-12-27T09:03:56.397Z,23.10
2018-12-27T09:04:56.409Z,23.40
2018-12-27T09:05:56.418Z,24.60
2018-12-27T09:06:56.436Z,23.70
2018-12-27T09:07:56.449Z,23.20
2018-12-27T09:08:56.462Z,24.10
2018-12-27T09:09:56.480Z,23.80
2018-12-27T09:10:56.495Z,22.20
2018-12-27T09:11:56.518Z,21.80
2018-12-27T09:12:56.523Z,21.90
2018-12-27T09:13:56.539Z,21.40
2018-12-27T09:14:56.556Z,21.70
2018-12-27T09:15:56.572Z,21.00
2018-12-27T09:16:56.594Z,19.90
2018-12-27T09:17:56.598Z,20.70
2018-12-27T09:18:56.623Z,20.00
2018-12-27T09:19:56.646Z,21.00
2018-12-27T09:20:56.652Z,20.20
2018-12-27T09:21:56.665Z,20.10
2018-12-27T09:22:56.677Z,20.70
2018-12-27T09:23:56.694Z,20.00
2018-12-27T09:24:56.710Z,20.00
2018-12-27T09:25:56.723Z,20.40
2018-12-27T09:26:56.738Z,20.20
2018-12-27T09:27:56.755Z,20.10
2018-12-27T09:28:56.782Z,19.90
2018-12-27T09:29:56.779Z,19.40
2018-12-27T09:30:56.798Z,19.60
2018-12-27T09:31:56.812Z,19.20
2018-12-27T09:32:56.829Z,19.90
2018-12-27T09:33:56.842Z,18.80
2018-12-27T09:34:56.858Z,19.60
2018-12-27T09:35:56.874Z,20.40
2018-12-27T09:36:56.884Z,22.80
2018-12-27T09:37:56.903Z,28.40
2018-12-27T09:38:56.916Z,20.80
2018-12-27T09:39:56.943Z,20.80
2018-12-27T09:40:56.949Z,20.80
2018-12-27T09:41:56.967Z,26.90
2018-12-27T09:42:56.988Z,30.10
2018-12-27T09:43:57.009Z,24.90
2018-12-27T09:44:57.085Z,23.80
2018-12-27T09:45:57.037Z,22.10
2018-12-27T09:46:57.053Z,21.30
2018-12-27T09:47:57.060Z,20.40
2018-12-27T09:48:57.074Z,19.80
2018-12-27T09:49:57.096Z,20.20
2018-12-27T09:50:57.139Z,20.20
2018-12-27T09:52:02.009Z,19.20
2018-12-27T09:52:57.171Z,19.50
2018-12-27T09:53:57.154Z,19.70
2018-12-27T09:54:57.167Z,19.70
2018-12-27T09:55:57.186Z,20.60
2018-12-27T09:56:57.207Z,20.10
2018-12-27T09:57:57.245Z,19.30
2018-12-27T09:58:57.233Z,19.70
2018-12-27T09:59:57.253Z,19.60
2018-12-27T10:00:57.276Z,18.20
2018-12-27T10:01:57.280Z,19.30
2018-12-27T10:02:57.300Z,19.40
2018-12-27T10:03:57.315Z,18.80
2018-12-27T10:04:57.324Z,19.40
2018-12-27T10:05:57.351Z,19.40
2018-12-27T10:06:57.372Z,19.30
2018-12-27T10:07:57.666Z,19.10
2018-12-27T10:08:57.528Z,19.40
2018-12-27T10:09:57.498Z,19.10
2018-12-27T10:10:57.508Z,19.50
2018-12-27T10:11:57.495Z,19.30
2018-12-27T10:12:57.486Z,19.90
2018-12-27T10:13:57.477Z,19.30
2018-12-27T10:14:57.539Z,19.40
2018-12-27T10:15:57.504Z,19.70
2018-12-27T10:16:57.534Z,19.50
2018-12-27T10:17:57.537Z,19.30
2018-12-27T10:18:57.555Z,19.70
2018-12-27T10:19:57.571Z,19.20
2018-12-27T10:20:57.597Z,19.50
2018-12-27T10:21:57.620Z,18.30
2018-12-27T10:22:57.635Z,19.00
2018-12-27T10:23:57.644Z,19.10
2018-12-27T10:24:57.645Z,18.70
2018-12-27T10:25:57.660Z,18.50
2018-12-27T10:26:57.673Z,19.30
2018-12-27T10:27:57.700Z,18.10
2018-12-27T10:28:57.712Z,18.90
2018-12-27T10:29:57.730Z,18.80
2018-12-27T10:30:59.947Z,19.00
2018-12-27T10:31:57.792Z,20.20
2018-12-27T10:32:57.785Z,19.00
2018-12-27T10:33:57.797Z,18.80
2018-12-27T10:34:57.816Z,19.00
2018-12-27T10:35:57.829Z,19.60
2018-12-27T10:36:57.836Z,19.70
2018-12-27T10:37:57.850Z,19.90
2018-12-27T10:38:57.876Z,19.20
2018-12-27T10:39:57.881Z,19.50
2018-12-27T10:40:57.900Z,18.50
2018-12-27T10:41:57.912Z,19.50
2018-12-27T10:42:57.942Z,19.00
2018-12-27T10:43:57.963Z,20.50
2018-12-27T10:44:57.968Z,20.00
2018-12-27T10:45:57.984Z,19.40
2018-12-27T10:46:58.000Z,20.10
2018-12-27T10:47:58.013Z,20.10
2018-12-27T10:48:58.034Z,20.30
2018-12-27T10:49:58.045Z,19.00
2018-12-27T10:50:58.063Z,19.40
2018-12-27T10:51:58.081Z,18.90
2018-12-27T10:52:58.097Z,19.00
2018-12-27T10:53:58.111Z,20.00
2018-12-27T10:54:58.129Z,19.70
2018-12-27T10:55:58.153Z,20.10
2018-12-27T10:56:58.157Z,20.00
2018-12-27T10:57:58.182Z,19.90
2018-12-27T10:58:58.192Z,20.20
2018-12-27T10:59:58.205Z,20.50
2018-12-27T11:00:58.224Z,21.00
2018-12-27T11:01:58.239Z,20.90
2018-12-27T11:02:58.266Z,20.40
2018-12-27T11:03:58.269Z,20.90
2018-12-27T11:04:58.297Z,19.90
2018-12-27T11:05:58.308Z,21.20
2018-12-27T11:06:58.322Z,21.10
2018-12-27T11:07:58.341Z,21.10
2018-12-27T11:08:58.355Z,21.40
2018-12-27T11:09:58.415Z,20.60
2018-12-27T11:10:58.384Z,21.30
2018-12-27T11:11:58.399Z,20.80
2018-12-27T11:12:58.411Z,20.00
2018-12-27T11:13:58.435Z,20.80
2018-12-27T11:14:58.454Z,20.30
2018-12-27T11:15:58.490Z,20.70
2018-12-27T11:16:58.516Z,19.70
2018-12-27T11:17:58.501Z,20.90
2018-12-27T11:18:58.522Z,20.70
2018-12-27T11:19:58.550Z,20.20
2018-12-27T11:20:58.553Z,20.70
2018-12-27T11:21:58.573Z,19.20
2018-12-27T11:22:58.582Z,19.90
2018-12-27T11:23:58.596Z,19.50
2018-12-27T11:24:58.618Z,19.90
2018-12-27T11:25:58.632Z,19.70
2018-12-27T11:26:58.642Z,20.20
2018-12-27T11:27:58.669Z,20.30
2018-12-27T11:28:58.674Z,19.90
2018-12-27T11:29:58.688Z,20.20
2018-12-27T11:30:58.707Z,19.40
2018-12-27T11:31:58.727Z,20.40
2018-12-27T11:32:58.740Z,19.30
2018-12-27T11:33:58.753Z,20.20
2018-12-27T11:34:58.772Z,19.30
2018-12-27T11:35:58.789Z,19.50
2018-12-27T11:36:58.805Z,20.00
2018-12-27T11:37:58.827Z,19.20
2018-12-27T11:38:58.836Z,18.80
2018-12-27T11:39:58.858Z,19.00
2018-12-27T11:40:58.871Z,17.80
2018-12-27T11:41:58.884Z,19.60
2018-12-27T11:42:58.903Z,19.20
2018-12-27T11:43:58.919Z,18.80
2018-12-27T11:44:58.931Z,19.50
2018-12-27T11:45:58.950Z,19.30
2018-12-27T11:46:58.978Z,18.70
2018-12-27T11:47:58.986Z,20.10
2018-12-27T11:48:58.999Z,19.40
2018-12-27T11:49:59.030Z,19.10
2018-12-27T11:50:59.034Z,20.00
2018-12-27T11:51:59.052Z,19.40
2018-12-27T11:52:59.065Z,18.90
2018-12-27T11:53:59.086Z,18.80
2018-12-27T11:54:59.103Z,20.00
2018-12-27T11:55:59.114Z,17.80
2018-12-27T11:56:59.132Z,19.40
2018-12-27T11:57:59.156Z,18.30
2018-12-27T11:58:59.161Z,19.20
2018-12-27T11:59:59.184Z,18.00
2018-12-27T12:00:59.206Z,18.30
2018-12-27T12:01:59.212Z,18.80
2018-12-27T12:02:59.227Z,17.90
2018-12-27T12:03:59.247Z,17.90
2018-12-27T12:04:59.262Z,18.30
2018-12-27T12:06:03.228Z,17.80
2018-12-27T12:06:59.304Z,17.50
2018-12-27T12:07:59.329Z,17.40
2018-12-27T12:08:59.332Z,17.10
2018-12-27T12:09:59.342Z,17.20
2018-12-27T12:10:59.359Z,17.50
2018-12-27T12:11:59.375Z,16.80
2018-12-27T12:12:59.390Z,17.10
2018-12-27T12:13:59.451Z,17.10
2018-12-27T12:14:59.442Z,17.20
2018-12-27T12:15:59.442Z,17.90
2018-12-27T12:16:59.477Z,16.80
2018-12-27T12:17:59.485Z,16.50
2018-12-27T12:18:59.497Z,16.90
2018-12-27T12:19:59.511Z,16.90
2018-12-27T12:20:59.546Z,16.70
2018-12-27T12:21:59.543Z,17.00
2018-12-27T12:22:59.566Z,17.90
2018-12-27T12:23:59.577Z,17.30
2018-12-27T12:24:59.598Z,17.30
2018-12-27T12:25:59.615Z,17.50
2018-12-27T12:26:59.643Z,17.00
2018-12-27T12:27:59.652Z,16.90
2018-12-27T12:28:59.665Z,17.10
2018-12-27T12:29:59.678Z,18.00
2018-12-27T12:30:59.699Z,17.10
2018-12-27T12:31:59.715Z,17.30
2018-12-27T12:32:59.727Z,18.60
2018-12-27T12:33:59.751Z,17.60
2018-12-27T12:34:59.763Z,17.70
2018-12-27T12:35:59.777Z,18.00
2018-12-27T12:36:59.795Z,18.20
2018-12-27T12:37:59.829Z,18.90
2018-12-27T12:38:59.837Z,19.20
2018-12-27T12:39:59.861Z,18.50
2018-12-27T12:40:59.861Z,18.30
2018-12-27T12:41:59.886Z,18.10
2018-12-27T12:42:59.897Z,19.10
2018-12-27T12:43:59.918Z,18.60
2018-12-27T12:44:59.952Z,18.30
2018-12-27T12:45:59.950Z,19.50
2018-12-27T12:46:59.964Z,18.50
2018-12-27T12:48:01.288Z,18.70
2018-12-27T12:49:00.000Z,17.50
2018-12-27T12:50:00.014Z,18.30
2018-12-27T12:51:00.038Z,18.40
2018-12-27T12:52:00.063Z,17.00
2018-12-27T12:53:00.075Z,18.10